Weather at Malili Airport [CLOSED]

Public forecast

Using degrees Celsius for public forecast. Weather courtesy of forecast.io.

Closest aviation weather report (METAR) to Malili Airport

Closest report is Sultan Aji Muhammad Sulaiman Sepinggan International Airport, 265.1 nm (490.9 km) WNW.

2023/02/02 17:30 (retrieved 42 minutes ago)

WALL 021730Z 32004KT 9000 SCT020 26/25 Q1008 NOSIG

Closest aviation forecast (TAF) to Malili Airport

Forecast is more than 12 hours old.

Closest forecast is Haluoleo Airport, 117.8 nm (218.1 km) SE.

2023/02/01 18:00 (retrieved 1 day ago)

TAF WAWW 011700Z 0118/0206 00000KT 7000 SCT018 TEMPO 0118/0122 5000 TSRA FEW017CB BECMG 0201/0203 02010KT